createdAt,value
2023-01-28T00:00:10.502Z,54.87
2023-01-28T00:02:41.390Z,67.77
2023-01-28T00:05:09.727Z,60.10
2023-01-28T00:07:37.905Z,59.53
2023-01-28T00:10:06.691Z,61.53
2023-01-28T00:12:35.283Z,56.77
2023-01-28T00:15:03.310Z,61.03
2023-01-28T00:17:31.728Z,53.80
2023-01-28T00:20:00.927Z,61.10
2023-01-28T00:22:33.076Z,55.87
2023-01-28T00:25:01.262Z,50.10
2023-01-28T00:27:29.533Z,63.20
2023-01-28T00:29:57.590Z,51.07
2023-01-28T00:32:25.916Z,45.27
2023-01-28T00:34:53.977Z,54.30
2023-01-28T00:37:22.974Z,44.03
2023-01-28T00:39:51.056Z,46.30
2023-01-28T00:42:19.440Z,59.00
2023-01-28T00:44:48.254Z,43.63
2023-01-28T00:47:16.339Z,52.93
2023-01-28T00:49:44.483Z,46.90
2023-01-28T00:52:12.593Z,55.03
2023-01-28T00:54:41.568Z,60.27
2023-01-28T00:57:10.891Z,53.03
2023-01-28T00:59:43.418Z,54.87
2023-01-28T01:02:14.535Z,57.03
2023-01-28T01:04:55.320Z,46.73
2023-01-28T01:07:35.207Z,45.73
2023-01-28T01:10:04.080Z,64.83
2023-01-28T01:12:32.634Z,48.03
2023-01-28T01:15:04.752Z,46.27
2023-01-28T01:17:33.266Z,51.13
2023-01-28T01:20:09.861Z,43.53
2023-01-28T01:22:38.239Z,46.83
2023-01-28T01:25:07.420Z,47.97
2023-01-28T01:27:35.449Z,44.33
2023-01-28T01:30:03.944Z,51.70
2023-01-28T01:32:35.971Z,53.40
2023-01-28T01:35:14.023Z,59.57
2023-01-28T01:37:45.341Z,43.27
2023-01-28T01:40:16.002Z,45.80
2023-01-28T01:42:44.288Z,48.10
2023-01-28T01:45:17.714Z,46.67
2023-01-28T01:48:00.123Z,40.10
2023-01-28T01:50:45.910Z,52.33
2023-01-28T01:53:21.500Z,48.70
2023-01-28T01:56:04.959Z,42.60
2023-01-28T01:58:36.685Z,51.30
2023-01-28T02:01:05.981Z,42.70
2023-01-28T02:03:41.847Z,45.53
2023-01-28T02:06:10.321Z,50.73
2023-01-28T02:08:38.276Z,47.33
2023-01-28T02:11:07.819Z,56.87
2023-01-28T02:13:41.278Z,58.17
2023-01-28T02:16:10.410Z,56.70
2023-01-28T02:18:38.888Z,50.77
2023-01-28T02:21:15.917Z,44.10
2023-01-28T02:23:54.470Z,53.80
2023-01-28T02:26:46.558Z,40.83
2023-01-28T02:29:19.062Z,43.47
2023-01-28T02:32:00.002Z,42.60
2023-01-28T02:34:32.890Z,48.70
2023-01-28T02:37:10.466Z,41.73
2023-01-28T02:39:46.085Z,46.97
2023-01-28T02:42:34.762Z,42.07
2023-01-28T02:45:03.096Z,51.80
2023-01-28T02:47:50.040Z,37.03
2023-01-28T02:50:19.105Z,47.80
2023-01-28T02:53:44.408Z,39.47
2023-01-28T02:56:40.692Z,47.07
2023-01-28T02:59:31.569Z,42.07
2023-01-28T03:02:10.809Z,41.97
2023-01-28T03:04:45.849Z,42.63
2023-01-28T03:07:15.896Z,39.37
2023-01-28T03:09:46.305Z,46.63
2023-01-28T03:12:45.136Z,42.00
2023-01-28T03:15:53.725Z,39.90
2023-01-28T03:18:47.682Z,42.53
2023-01-28T03:21:52.915Z,44.37
2023-01-28T03:24:43.700Z,42.77
2023-01-28T03:27:36.166Z,43.60
2023-01-28T03:30:28.914Z,41.17
2023-01-28T03:33:15.861Z,44.37
2023-01-28T03:36:20.981Z,43.20
2023-01-28T03:38:49.143Z,32.63
2023-01-28T03:41:22.866Z,45.33
2023-01-28T03:43:52.078Z,47.13
2023-01-28T03:46:20.430Z,45.77
2023-01-28T03:48:48.760Z,44.30
2023-01-28T03:51:18.159Z,47.77
2023-01-28T03:53:46.290Z,44.63
2023-01-28T03:56:19.877Z,43.83
2023-01-28T03:58:54.503Z,47.17
2023-01-28T04:01:22.958Z,42.67
2023-01-28T04:03:50.894Z,42.67
2023-01-28T04:06:20.116Z,45.83
2023-01-28T04:09:00.484Z,46.00
2023-01-28T04:11:29.139Z,39.17
2023-01-28T04:13:58.208Z,43.93
2023-01-28T04:16:26.618Z,33.37
2023-01-28T04:18:55.112Z,46.50
2023-01-28T04:21:23.358Z,39.33
2023-01-28T04:23:51.978Z,45.17
2023-01-28T04:26:22.185Z,38.13
2023-01-28T04:28:50.246Z,48.37
2023-01-28T04:31:18.200Z,46.90
2023-01-28T04:33:47.013Z,42.87
2023-01-28T04:36:15.068Z,46.43
2023-01-28T04:38:43.371Z,44.93
2023-01-28T04:41:11.704Z,42.90
2023-01-28T04:43:39.811Z,46.70
2023-01-28T04:46:07.848Z,36.73
2023-01-28T04:48:36.993Z,39.80
2023-01-28T04:51:05.531Z,38.03
2023-01-28T04:53:33.968Z,39.07
2023-01-28T04:56:02.031Z,40.70
2023-01-28T04:58:30.333Z,34.13
2023-01-28T05:00:59.554Z,41.43
2023-01-28T05:03:27.677Z,43.23
2023-01-28T05:05:55.868Z,43.77
2023-01-28T05:08:24.066Z,40.60
2023-01-28T05:10:52.124Z,40.53
2023-01-28T05:13:20.193Z,41.67
2023-01-28T05:15:53.285Z,42.00
2023-01-28T05:18:21.664Z,40.27
2023-01-28T05:20:49.660Z,31.10
2023-01-28T05:23:20.621Z,31.53
2023-01-28T05:25:48.691Z,40.23
2023-01-28T05:28:17.231Z,39.40
2023-01-28T05:30:45.808Z,35.77
2023-01-28T05:33:15.247Z,38.37
2023-01-28T05:35:44.381Z,41.03
2023-01-28T05:38:15.205Z,39.67
2023-01-28T05:40:44.204Z,34.90
2023-01-28T05:43:13.474Z,34.00
2023-01-28T05:45:42.105Z,38.73
2023-01-28T05:48:15.170Z,30.30
2023-01-28T05:50:43.292Z,33.93
2023-01-28T05:53:14.262Z,33.20
2023-01-28T05:55:42.227Z,32.50
2023-01-28T05:58:10.259Z,37.03
2023-01-28T06:00:38.160Z,30.17
2023-01-28T06:03:06.465Z,32.73
2023-01-28T06:05:34.604Z,33.40
2023-01-28T06:08:02.646Z,35.57
2023-01-28T06:10:31.543Z,29.57
2023-01-28T06:12:59.833Z,36.17
2023-01-28T06:15:28.023Z,29.00
2023-01-28T06:17:56.191Z,32.77
2023-01-28T06:20:24.307Z,33.30
2023-01-28T06:22:52.962Z,26.90
2023-01-28T06:25:21.338Z,34.00
2023-01-28T06:27:51.810Z,35.70
2023-01-28T06:30:20.539Z,30.63
2023-01-28T06:32:54.775Z,27.77
2023-01-28T06:35:24.419Z,31.97
2023-01-28T06:37:53.530Z,37.53
2023-01-28T06:40:23.559Z,31.03
2023-01-28T06:42:54.892Z,29.43
2023-01-28T06:45:23.229Z,29.00
2023-01-28T06:47:51.660Z,33.40
2023-01-28T06:50:22.522Z,25.70
2023-01-28T06:52:51.450Z,34.90
2023-01-28T06:55:20.422Z,22.50
2023-01-28T06:57:48.874Z,26.30
2023-01-28T07:00:17.839Z,29.60
2023-01-28T07:02:46.109Z,29.13
2023-01-28T07:05:14.367Z,32.37
2023-01-28T07:07:45.091Z,31.33
2023-01-28T07:10:18.237Z,26.93
2023-01-28T07:12:47.635Z,25.37
2023-01-28T07:15:16.691Z,26.47
2023-01-28T07:17:45.515Z,30.30
2023-01-28T07:20:16.042Z,22.80
2023-01-28T07:22:45.405Z,25.10
2023-01-28T07:25:17.197Z,26.17
2023-01-28T07:27:49.743Z,28.57
2023-01-28T07:30:19.327Z,25.93
2023-01-28T07:32:48.184Z,26.67
2023-01-28T07:35:16.531Z,25.70
2023-01-28T07:37:54.778Z,33.70
2023-01-28T07:40:23.219Z,27.87
2023-01-28T07:42:51.691Z,31.63
2023-01-28T07:45:27.247Z,28.40
2023-01-28T07:47:57.114Z,35.27
2023-01-28T07:50:26.529Z,39.47
2023-01-28T07:52:55.116Z,38.83
2023-01-28T07:55:23.408Z,35.10
2023-01-28T07:57:57.238Z,31.27
2023-01-28T08:00:27.476Z,31.33
2023-01-28T08:03:00.752Z,35.40
2023-01-28T08:05:44.503Z,40.53
2023-01-28T08:08:13.037Z,35.77
2023-01-28T08:10:41.722Z,32.90
2023-01-28T08:13:12.253Z,35.07
2023-01-28T08:15:41.404Z,32.57
2023-01-28T08:18:13.654Z,27.93
2023-01-28T08:20:45.082Z,30.30
2023-01-28T08:23:19.049Z,39.97
2023-01-28T08:25:48.055Z,30.10
2023-01-28T08:28:17.371Z,37.57
2023-01-28T08:30:48.049Z,24.47
2023-01-28T08:33:17.550Z,35.93
2023-01-28T08:35:45.796Z,34.73
2023-01-28T08:38:18.400Z,30.67
2023-01-28T08:40:47.232Z,34.60
2023-01-28T08:43:15.871Z,33.93
2023-01-28T08:45:44.757Z,30.10
2023-01-28T08:48:17.075Z,33.43
2023-01-28T08:50:45.894Z,34.37
2023-01-28T08:53:22.002Z,36.83
2023-01-28T08:55:50.191Z,32.57
2023-01-28T08:58:19.854Z,36.17
2023-01-28T09:00:48.705Z,34.90
2023-01-28T09:03:17.935Z,30.40
2023-01-28T09:05:47.162Z,31.93
2023-01-28T09:08:16.432Z,35.80
2023-01-28T09:10:45.057Z,37.57
2023-01-28T09:13:15.809Z,32.13
2023-01-28T09:15:44.467Z,32.00
2023-01-28T09:18:12.791Z,22.07
2023-01-28T09:20:41.188Z,25.07
2023-01-28T09:23:10.526Z,31.73
2023-01-28T09:25:39.596Z,33.70
2023-01-28T09:28:08.699Z,29.47
2023-01-28T09:30:38.401Z,30.20
2023-01-28T09:33:07.734Z,35.00
2023-01-28T09:35:37.258Z,37.53
2023-01-28T09:38:05.993Z,30.57
2023-01-28T09:40:37.843Z,40.20
2023-01-28T09:43:26.406Z,37.60
2023-01-28T09:46:07.108Z,37.93
2023-01-28T09:48:48.668Z,26.03
2023-01-28T09:51:41.237Z,30.07
2023-01-28T09:54:23.774Z,32.10
2023-01-28T09:56:56.418Z,37.53
2023-01-28T09:59:25.096Z,32.63
2023-01-28T10:02:20.199Z,31.30
2023-01-28T10:04:59.358Z,27.63
2023-01-28T10:07:37.468Z,30.53
2023-01-28T10:10:22.183Z,26.00
2023-01-28T10:12:54.587Z,31.47
2023-01-28T10:15:37.696Z,30.33
2023-01-28T10:18:17.284Z,30.40
2023-01-28T10:20:50.700Z,31.20
2023-01-28T10:23:37.560Z,29.53
2023-01-28T10:26:12.081Z,25.73
2023-01-28T10:28:40.521Z,25.10
2023-01-28T10:31:16.497Z,25.43
2023-01-28T10:33:45.039Z,33.20
2023-01-28T10:36:13.623Z,29.57
2023-01-28T10:38:41.750Z,28.80
2023-01-28T10:41:12.548Z,28.40
2023-01-28T10:43:42.608Z,33.03
2023-01-28T10:46:23.560Z,30.43
2023-01-28T10:49:10.668Z,30.27
2023-01-28T10:51:41.641Z,30.57
2023-01-28T10:54:29.030Z,28.53
2023-01-28T10:57:03.501Z,33.10
2023-01-28T10:59:42.145Z,24.90
2023-01-28T11:02:32.844Z,21.73
2023-01-28T11:05:21.329Z,29.70
2023-01-28T11:07:52.580Z,28.63
2023-01-28T11:10:32.730Z,24.90
2023-01-28T11:13:03.169Z,35.50
2023-01-28T11:15:31.922Z,27.07
2023-01-28T11:18:10.181Z,30.10
2023-01-28T11:20:42.559Z,26.17
2023-01-28T11:23:25.667Z,23.70
2023-01-28T11:26:15.317Z,27.87
2023-01-28T11:28:43.918Z,25.17
2023-01-28T11:31:15.932Z,26.97
2023-01-28T11:33:54.727Z,29.73
2023-01-28T11:36:32.863Z,30.40
2023-01-28T11:39:02.379Z,31.17
2023-01-28T11:41:35.706Z,25.30
2023-01-28T11:44:27.507Z,35.17
2023-01-28T11:47:08.052Z,30.07
2023-01-28T11:49:54.694Z,20.73
2023-01-28T11:52:55.195Z,21.00
2023-01-28T11:55:40.812Z,24.50
2023-01-28T11:58:22.942Z,22.20
2023-01-28T12:01:27.755Z,23.50
2023-01-28T12:04:17.162Z,25.30
2023-01-28T12:07:12.139Z,25.57
2023-01-28T12:09:47.091Z,19.97
2023-01-28T12:12:34.003Z,25.40
2023-01-28T12:15:32.736Z,27.03
2023-01-28T12:18:26.012Z,34.03
2023-01-28T12:21:14.016Z,25.80
2023-01-28T12:23:58.126Z,25.23
2023-01-28T12:26:53.575Z,29.60
2023-01-28T12:29:25.090Z,23.30
2023-01-28T12:31:59.223Z,21.40
2023-01-28T12:34:45.743Z,21.30
2023-01-28T12:37:26.426Z,25.27
2023-01-28T12:40:13.038Z,24.27
2023-01-28T12:42:57.901Z,21.13
2023-01-28T12:45:42.907Z,23.97
2023-01-28T12:48:21.665Z,27.40
2023-01-28T12:50:57.900Z,21.80
2023-01-28T12:53:45.524Z,18.87
2023-01-28T12:56:24.270Z,18.57
2023-01-28T12:59:07.431Z,21.07
2023-01-28T13:01:44.701Z,19.20
2023-01-28T13:04:50.161Z,25.70
2023-01-28T13:07:24.516Z,17.37
2023-01-28T13:10:18.233Z,17.20
2023-01-28T13:12:47.419Z,29.13
2023-01-28T13:15:17.973Z,23.13
2023-01-28T13:18:00.936Z,18.93
2023-01-28T13:20:40.480Z,17.77
2023-01-28T13:23:26.914Z,19.60
2023-01-28T13:25:56.262Z,20.37
2023-01-28T13:28:32.809Z,16.33
2023-01-28T13:31:14.719Z,18.17
2023-01-28T13:33:43.599Z,26.60
2023-01-28T13:36:33.531Z,25.63
2023-01-28T13:39:06.062Z,26.47
2023-01-28T13:41:45.711Z,25.90
2023-01-28T13:44:28.229Z,22.27
2023-01-28T13:47:13.209Z,25.60
2023-01-28T13:49:56.613Z,22.80
2023-01-28T13:52:31.031Z,22.73
2023-01-28T13:55:25.915Z,22.47
2023-01-28T13:58:28.833Z,20.63
2023-01-28T14:01:20.281Z,23.00
2023-01-28T14:04:32.821Z,21.70
2023-01-28T14:07:18.551Z,21.53
2023-01-28T14:10:14.403Z,19.57
2023-01-28T14:13:07.376Z,19.17
2023-01-28T14:15:47.230Z,20.27
2023-01-28T14:18:40.194Z,18.43
2023-01-28T14:21:20.455Z,17.80
2023-01-28T14:24:00.260Z,18.17
2023-01-28T14:27:03.993Z,22.70
2023-01-28T14:29:59.912Z,19.60
2023-01-28T14:32:31.213Z,18.87
2023-01-28T14:35:02.658Z,18.70
2023-01-28T14:37:32.118Z,20.03
2023-01-28T14:40:06.322Z,20.47
2023-01-28T14:42:44.453Z,19.37
2023-01-28T14:45:49.745Z,19.93
2023-01-28T14:48:39.096Z,15.33
2023-01-28T14:51:32.459Z,21.47
2023-01-28T14:54:28.542Z,20.80
2023-01-28T14:57:29.371Z,21.03
2023-01-28T15:00:02.632Z,19.37
2023-01-28T15:02:32.269Z,22.90
2023-01-28T15:05:21.714Z,20.40
2023-01-28T15:07:52.411Z,17.73
2023-01-28T15:10:34.556Z,20.33
2023-01-28T15:13:12.561Z,26.40
2023-01-28T15:15:42.275Z,20.83
2023-01-28T15:18:23.142Z,22.23
2023-01-28T15:20:53.740Z,21.53
2023-01-28T15:23:28.997Z,21.70
2023-01-28T15:25:57.491Z,21.33
2023-01-28T15:28:31.554Z,22.47
2023-01-28T15:31:00.367Z,18.47
2023-01-28T15:33:33.928Z,21.63
2023-01-28T15:36:02.470Z,22.10
2023-01-28T15:38:30.947Z,19.40
2023-01-28T15:41:03.819Z,14.10
2023-01-28T15:43:35.032Z,18.10
2023-01-28T15:46:03.423Z,25.13
2023-01-28T15:48:33.415Z,24.03
2023-01-28T15:51:04.084Z,19.83
2023-01-28T15:53:42.629Z,20.13
2023-01-28T15:56:13.598Z,21.23
2023-01-28T15:58:42.643Z,21.20
2023-01-28T16:01:15.124Z,15.90
2023-01-28T16:03:45.106Z,19.60
2023-01-28T16:06:18.919Z,23.40
2023-01-28T16:08:59.523Z,17.20
2023-01-28T16:11:38.856Z,22.40
2023-01-28T16:14:07.930Z,19.70
2023-01-28T16:16:41.029Z,26.50
2023-01-28T16:19:24.586Z,22.13
2023-01-28T16:21:52.564Z,25.87
2023-01-28T16:24:25.763Z,23.17
2023-01-28T16:27:10.663Z,22.00
2023-01-28T16:29:39.739Z,24.07
2023-01-28T16:32:31.055Z,22.37
2023-01-28T16:34:59.867Z,26.33
2023-01-28T16:37:28.453Z,24.73
2023-01-28T16:39:58.114Z,21.63
2023-01-28T16:42:28.452Z,24.23
2023-01-28T16:44:56.852Z,21.60
2023-01-28T16:47:24.925Z,24.50
2023-01-28T16:49:52.919Z,23.17
2023-01-28T16:52:20.879Z,22.63
2023-01-28T16:54:49.051Z,22.83
2023-01-28T16:57:19.372Z,24.30
2023-01-28T16:59:47.523Z,24.40
2023-01-28T17:02:17.262Z,26.83
2023-01-28T17:04:49.076Z,24.23
2023-01-28T17:07:19.780Z,26.00
2023-01-28T17:09:48.197Z,23.77
2023-01-28T17:12:16.446Z,21.83
2023-01-28T17:14:44.291Z,24.37
2023-01-28T17:17:12.564Z,23.13
2023-01-28T17:19:44.241Z,23.97
2023-01-28T17:22:12.431Z,28.47
2023-01-28T17:24:40.502Z,25.03
2023-01-28T17:27:08.484Z,23.63
2023-01-28T17:29:36.860Z,25.03
2023-01-28T17:32:05.759Z,24.77
2023-01-28T17:34:34.596Z,29.43
2023-01-28T17:37:06.567Z,20.57
2023-01-28T17:39:34.985Z,23.83
2023-01-28T17:42:03.562Z,23.37
2023-01-28T17:44:31.873Z,27.13
2023-01-28T17:47:00.944Z,27.33
2023-01-28T17:49:29.055Z,24.97
2023-01-28T17:51:57.130Z,24.47
2023-01-28T17:54:27.345Z,19.67
2023-01-28T17:56:56.594Z,21.47
2023-01-28T17:59:26.006Z,26.77
2023-01-28T18:01:55.854Z,22.27
2023-01-28T18:04:24.389Z,23.53
2023-01-28T18:06:52.953Z,21.50
2023-01-28T18:09:21.439Z,20.27
2023-01-28T18:11:52.480Z,24.50
2023-01-28T18:14:23.000Z,24.37
2023-01-28T18:16:52.491Z,22.33
2023-01-28T18:19:21.262Z,22.77
2023-01-28T18:21:53.375Z,24.07
2023-01-28T18:24:24.717Z,27.83
2023-01-28T18:26:58.607Z,22.90
2023-01-28T18:29:27.975Z,21.57
2023-01-28T18:31:57.078Z,23.03
2023-01-28T18:34:27.123Z,30.67
2023-01-28T18:36:57.711Z,30.80
2023-01-28T18:39:30.846Z,28.13
2023-01-28T18:41:59.966Z,24.87
2023-01-28T18:44:33.508Z,23.83
2023-01-28T18:47:02.051Z,27.73
2023-01-28T18:49:32.349Z,25.03
2023-01-28T18:52:00.815Z,24.03
2023-01-28T18:54:29.383Z,23.57
2023-01-28T18:56:58.254Z,25.50
2023-01-28T18:59:26.732Z,24.97
2023-01-28T19:01:55.197Z,24.60
2023-01-28T19:04:23.348Z,21.70
2023-01-28T19:06:52.182Z,24.67
2023-01-28T19:09:20.747Z,25.77
2023-01-28T19:11:53.585Z,26.27
2023-01-28T19:14:21.642Z,25.20
2023-01-28T19:16:49.989Z,24.27
2023-01-28T19:19:18.786Z,24.20
2023-01-28T19:21:47.776Z,24.87
2023-01-28T19:24:19.603Z,23.27
2023-01-28T19:26:50.656Z,24.87
2023-01-28T19:29:19.903Z,23.53
2023-01-28T19:31:50.191Z,24.67
2023-01-28T19:34:21.807Z,25.97
2023-01-28T19:36:50.512Z,26.10
2023-01-28T19:39:21.356Z,25.03
2023-01-28T19:41:49.861Z,22.47
2023-01-28T19:44:18.984Z,23.93
2023-01-28T19:46:48.199Z,21.30
2023-01-28T19:49:19.473Z,26.43
2023-01-28T19:51:48.432Z,21.47
2023-01-28T19:54:17.027Z,23.97
2023-01-28T19:56:45.442Z,23.13
2023-01-28T19:59:15.542Z,22.60
2023-01-28T20:01:44.228Z,26.30
2023-01-28T20:04:12.983Z,22.73
2023-01-28T20:06:41.567Z,21.77
2023-01-28T20:09:20.599Z,21.47
2023-01-28T20:11:48.829Z,26.70
2023-01-28T20:14:18.430Z,20.97
2023-01-28T20:16:46.444Z,27.57
2023-01-28T20:19:19.551Z,25.73
2023-01-28T20:21:48.387Z,21.13
2023-01-28T20:24:17.042Z,20.90
2023-01-28T20:26:45.588Z,27.00
2023-01-28T20:29:18.335Z,21.70
2023-01-28T20:31:54.629Z,20.53
2023-01-28T20:34:34.717Z,21.90
2023-01-28T20:37:03.705Z,24.40
2023-01-28T20:39:35.024Z,22.40
2023-01-28T20:42:07.253Z,22.87
2023-01-28T20:44:36.068Z,24.83
2023-01-28T20:47:05.267Z,27.43
2023-01-28T20:49:34.433Z,24.00
2023-01-28T20:52:02.946Z,21.97
2023-01-28T20:54:34.892Z,22.87
2023-01-28T20:57:05.095Z,20.57
2023-01-28T20:59:33.037Z,19.73
2023-01-28T21:02:01.354Z,21.27
2023-01-28T21:04:30.540Z,18.00
2023-01-28T21:06:59.173Z,22.70
2023-01-28T21:09:28.284Z,20.93
2023-01-28T21:11:59.289Z,19.63
2023-01-28T21:14:27.888Z,16.80
2023-01-28T21:16:56.332Z,17.33
2023-01-28T21:19:27.367Z,17.53
2023-01-28T21:21:57.963Z,20.80
2023-01-28T21:24:26.793Z,18.57
2023-01-28T21:26:55.158Z,21.33
2023-01-28T21:29:23.409Z,18.07
2023-01-28T21:31:51.556Z,19.63
2023-01-28T21:34:20.443Z,19.37
2023-01-28T21:36:48.737Z,20.47
2023-01-28T21:39:16.776Z,18.90
2023-01-28T21:41:45.115Z,17.30
2023-01-28T21:44:13.880Z,16.60
2023-01-28T21:46:42.649Z,17.93
2023-01-28T21:49:15.992Z,17.30
2023-01-28T21:51:47.598Z,19.37
2023-01-28T21:54:18.262Z,22.10
2023-01-28T21:56:49.357Z,19.47
2023-01-28T21:59:33.461Z,15.83
2023-01-28T22:02:05.448Z,19.80
2023-01-28T22:04:39.028Z,14.73
2023-01-28T22:07:09.865Z,17.50
2023-01-28T22:09:38.709Z,19.17
2023-01-28T22:12:08.477Z,18.07
2023-01-28T22:14:38.241Z,15.97
2023-01-28T22:17:11.776Z,19.10
2023-01-28T22:19:40.693Z,20.93
2023-01-28T22:22:08.701Z,17.10
2023-01-28T22:24:36.920Z,20.60
2023-01-28T22:27:05.011Z,18.63
2023-01-28T22:29:33.611Z,18.07
2023-01-28T22:32:06.058Z,22.60
2023-01-28T22:34:35.542Z,16.57
2023-01-28T22:37:03.778Z,15.90
2023-01-28T22:39:31.783Z,15.93
2023-01-28T22:42:00.611Z,16.03
2023-01-28T22:44:28.929Z,16.87
2023-01-28T22:46:57.426Z,16.80
2023-01-28T22:49:27.289Z,19.07
2023-01-28T22:51:55.523Z,23.83
2023-01-28T22:54:23.587Z,14.33
2023-01-28T22:56:52.207Z,16.57
2023-01-28T22:59:20.448Z,16.23
2023-01-28T23:01:48.950Z,14.47
2023-01-28T23:04:17.659Z,21.07
2023-01-28T23:06:46.024Z,14.70
2023-01-28T23:09:14.588Z,19.03
2023-01-28T23:11:43.525Z,12.37
2023-01-28T23:14:47.904Z,17.27
2023-01-28T23:17:34.635Z,17.60
2023-01-28T23:20:21.652Z,19.97
2023-01-28T23:23:08.125Z,15.60
2023-01-28T23:25:36.600Z,18.17
2023-01-28T23:28:05.022Z,13.47
2023-01-28T23:30:34.220Z,15.90
2023-01-28T23:33:04.615Z,17.63
2023-01-28T23:35:33.176Z,15.10
2023-01-28T23:38:01.558Z,15.90
2023-01-28T23:40:30.699Z,19.87
2023-01-28T23:42:58.904Z,11.50
2023-01-28T23:45:27.898Z,17.30
2023-01-28T23:47:56.685Z,14.50
2023-01-28T23:50:24.853Z,16.03
2023-01-28T23:52:55.243Z,17.60
2023-01-28T23:55:24.528Z,15.70
2023-01-28T23:57:53.100Z,18.00
